createdAt,value
2018-12-30T00:00:01.503Z,20.07
2018-12-30T00:02:31.599Z,23.40
2018-12-30T00:05:01.270Z,22.63
2018-12-30T00:07:32.181Z,19.20
2018-12-30T00:10:03.175Z,24.07
2018-12-30T00:12:32.693Z,25.60
2018-12-30T00:15:02.272Z,26.00
2018-12-30T00:17:31.868Z,20.73
2018-12-30T00:20:01.695Z,24.37
2018-12-30T00:22:33.672Z,19.50
2018-12-30T00:25:03.918Z,19.57
2018-12-30T00:27:33.523Z,19.30
2018-12-30T00:30:03.207Z,20.55
2018-12-30T00:32:32.942Z,20.90
2018-12-30T00:35:02.453Z,16.50
2018-12-30T00:37:31.845Z,19.97
2018-12-30T00:40:01.731Z,19.03
2018-12-30T00:42:31.328Z,18.40
2018-12-30T00:45:00.268Z,19.80
2018-12-30T00:47:29.951Z,19.57
2018-12-30T00:49:59.425Z,11.10
2018-12-30T00:52:28.831Z,16.30
2018-12-30T00:55:00.313Z,17.07
2018-12-30T00:57:30.261Z,11.45
2018-12-30T00:59:59.031Z,14.77
2018-12-30T01:02:28.707Z,12.40
2018-12-30T01:04:58.205Z,12.80
2018-12-30T01:07:27.669Z,10.10
2018-12-30T01:09:57.682Z,17.10
2018-12-30T01:12:29.097Z,14.73
2018-12-30T01:14:58.730Z,15.20
2018-12-30T01:17:28.598Z,21.33
2018-12-30T01:19:58.281Z,18.33
2018-12-30T01:22:28.142Z,18.43
2018-12-30T01:24:58.515Z,20.93
2018-12-30T01:27:27.278Z,19.20
2018-12-30T01:29:56.687Z,22.60
2018-12-30T01:32:28.992Z,19.13
2018-12-30T01:34:59.008Z,19.30
2018-12-30T01:37:28.376Z,16.23
2018-12-30T01:40:00.015Z,12.90
2018-12-30T01:42:29.399Z,13.93
2018-12-30T01:44:59.651Z,16.07
2018-12-30T01:47:29.444Z,15.53
2018-12-30T01:49:59.742Z,12.13
2018-12-30T01:52:29.474Z,11.07
2018-12-30T01:54:59.263Z,12.67
2018-12-30T01:57:30.472Z,14.30
2018-12-30T01:59:59.896Z,10.95
2018-12-30T02:02:28.979Z,19.90
2018-12-30T02:04:57.961Z,13.53
2018-12-30T02:07:28.658Z,9.03
2018-12-30T02:09:57.450Z,11.90
2018-12-30T02:12:26.367Z,17.17
2018-12-30T02:14:55.614Z,9.50
2018-12-30T02:17:24.713Z,13.57
2018-12-30T02:19:53.566Z,12.40
2018-12-30T02:22:22.632Z,13.87
2018-12-30T02:24:51.614Z,15.27
2018-12-30T02:27:21.063Z,15.50
2018-12-30T02:29:50.102Z,9.50
2018-12-30T02:32:19.020Z,18.93
2018-12-30T02:34:49.578Z,24.43
2018-12-30T02:37:19.132Z,17.13
2018-12-30T02:39:48.167Z,12.20
2018-12-30T02:42:16.926Z,16.80
2018-12-30T02:44:45.722Z,13.13
2018-12-30T02:47:14.494Z,13.77
2018-12-30T02:49:43.906Z,12.50
2018-12-30T02:52:14.794Z,16.10
2018-12-30T02:54:43.937Z,14.30
2018-12-30T02:57:13.480Z,18.43
2018-12-30T02:59:43.082Z,16.73
2018-12-30T03:02:11.838Z,13.77
2018-12-30T03:04:40.839Z,16.93
2018-12-30T03:07:10.159Z,19.00
2018-12-30T03:09:38.977Z,23.97
2018-12-30T03:12:08.282Z,17.83
2018-12-30T03:14:37.047Z,22.53
2018-12-30T03:17:05.824Z,14.90
2018-12-30T03:19:34.579Z,12.57
2018-12-30T03:22:04.195Z,12.80
2018-12-30T03:24:33.195Z,16.90
2018-12-30T03:27:02.033Z,20.93
2018-12-30T03:29:31.003Z,18.10
2018-12-30T03:32:00.146Z,20.37
2018-12-30T03:34:29.347Z,20.30
2018-12-30T03:36:58.681Z,9.90
2018-12-30T03:39:28.359Z,16.13
2018-12-30T03:41:57.261Z,14.93
2018-12-30T03:44:26.732Z,12.70
2018-12-30T03:46:58.429Z,19.00
2018-12-30T03:49:27.522Z,16.70
2018-12-30T03:51:56.272Z,14.87
2018-12-30T03:54:33.892Z,11.97
2018-12-30T03:57:02.746Z,13.03
2018-12-30T03:59:31.868Z,16.17
2018-12-30T04:02:00.831Z,17.23
2018-12-30T04:04:30.446Z,13.43
2018-12-30T04:06:59.361Z,18.50
2018-12-30T04:09:28.402Z,18.07
2018-12-30T04:11:57.274Z,15.03
2018-12-30T04:14:26.054Z,14.40
2018-12-30T04:16:57.285Z,19.70
2018-12-30T04:19:26.266Z,12.40
2018-12-30T04:21:55.170Z,18.53
2018-12-30T04:24:24.741Z,14.83
2018-12-30T04:26:53.504Z,13.53
2018-12-30T04:29:24.609Z,14.53
2018-12-30T04:31:53.583Z,16.63
2018-12-30T04:34:22.452Z,19.60
2018-12-30T04:36:51.263Z,19.33
2018-12-30T04:39:20.270Z,19.97
2018-12-30T04:41:50.515Z,14.00
2018-12-30T04:44:19.340Z,14.60
2018-12-30T04:46:48.354Z,17.73
2018-12-30T04:49:17.175Z,17.70
2018-12-30T04:51:46.074Z,16.73
2018-12-30T04:54:15.374Z,13.30
2018-12-30T04:56:44.168Z,18.70
2018-12-30T04:59:15.475Z,14.60
2018-12-30T05:01:44.230Z,15.10
2018-12-30T05:04:12.978Z,15.57
2018-12-30T05:06:41.772Z,14.60
2018-12-30T05:09:10.626Z,18.87
2018-12-30T05:11:39.419Z,17.47
2018-12-30T05:14:08.226Z,18.37
2018-12-30T05:16:37.101Z,17.57
2018-12-30T05:19:05.874Z,17.43
2018-12-30T05:21:34.630Z,16.67
2018-12-30T05:24:04.255Z,16.90
2018-12-30T05:26:33.030Z,16.07
2018-12-30T05:29:02.178Z,17.70
2018-12-30T05:31:31.879Z,12.20
2018-12-30T05:34:00.738Z,16.13
2018-12-30T05:36:29.671Z,20.80
2018-12-30T05:38:58.601Z,15.80
2018-12-30T05:41:27.383Z,23.30
2018-12-30T05:43:56.209Z,20.87
2018-12-30T05:46:24.955Z,16.70
2018-12-30T05:48:53.743Z,16.57
2018-12-30T05:51:22.561Z,13.37
2018-12-30T05:53:51.867Z,13.70
2018-12-30T05:56:22.752Z,13.63
2018-12-30T05:58:51.972Z,16.67
2018-12-30T06:01:20.734Z,15.47
2018-12-30T06:03:49.654Z,18.70
2018-12-30T06:06:18.416Z,19.10
2018-12-30T06:08:47.205Z,17.47
2018-12-30T06:11:15.972Z,16.23
2018-12-30T06:13:45.013Z,16.07
2018-12-30T06:16:15.035Z,14.03
2018-12-30T06:18:43.835Z,15.23
2018-12-30T06:21:12.811Z,17.17
2018-12-30T06:23:41.694Z,12.83
2018-12-30T06:26:10.470Z,17.73
2018-12-30T06:28:41.010Z,14.50
2018-12-30T06:31:09.814Z,18.97
2018-12-30T06:33:38.569Z,18.00
2018-12-30T06:36:07.348Z,17.37
2018-12-30T06:38:36.103Z,15.23
2018-12-30T06:41:05.028Z,15.03
2018-12-30T06:43:34.058Z,16.97
2018-12-30T06:46:02.939Z,13.70
2018-12-30T06:48:33.489Z,17.33
2018-12-30T06:51:02.399Z,16.60
2018-12-30T06:53:31.259Z,10.43
2018-12-30T06:56:00.041Z,24.67
2018-12-30T06:58:28.921Z,19.67
2018-12-30T07:00:57.666Z,18.50
2018-12-30T07:03:27.287Z,15.03
2018-12-30T07:05:56.964Z,20.20
2018-12-30T07:08:26.275Z,15.37
2018-12-30T07:10:55.174Z,12.93
2018-12-30T07:13:23.957Z,20.60
2018-12-30T07:15:52.915Z,15.63
2018-12-30T07:18:21.710Z,17.93
2018-12-30T07:20:50.461Z,21.33
2018-12-30T07:23:19.206Z,16.10
2018-12-30T07:25:48.478Z,16.10
2018-12-30T07:28:20.617Z,15.33
2018-12-30T07:30:49.433Z,17.50
2018-12-30T07:33:18.690Z,16.30
2018-12-30T07:35:47.575Z,17.60
2018-12-30T07:38:16.448Z,20.67
2018-12-30T07:40:45.270Z,19.67
2018-12-30T07:43:26.686Z,20.47
2018-12-30T07:45:55.575Z,22.80
2018-12-30T07:48:24.414Z,23.27
2018-12-30T07:50:53.242Z,19.27
2018-12-30T07:53:22.025Z,22.90
2018-12-30T07:55:50.770Z,22.97
2018-12-30T07:58:20.271Z,19.30
2018-12-30T08:00:49.370Z,20.97
2018-12-30T08:03:18.204Z,19.63
2018-12-30T08:05:47.010Z,24.67
2018-12-30T08:08:15.832Z,18.83
2018-12-30T08:10:44.611Z,24.00
2018-12-30T08:13:14.106Z,26.10
2018-12-30T08:15:45.287Z,15.93
2018-12-30T08:18:14.334Z,22.27
2018-12-30T08:20:45.428Z,20.80
2018-12-30T08:23:21.269Z,24.50
2018-12-30T08:25:44.903Z,21.80
2018-12-30T08:28:13.839Z,24.87
2018-12-30T08:30:42.762Z,20.17
2018-12-30T08:33:11.502Z,20.10
2018-12-30T08:35:40.394Z,24.50
2018-12-30T08:38:09.440Z,25.47
2018-12-30T08:40:38.310Z,22.80
2018-12-30T08:43:07.239Z,13.30
2018-12-30T08:45:36.044Z,12.33
2018-12-30T08:48:04.830Z,21.93
2018-12-30T08:50:36.072Z,19.13
2018-12-30T08:53:05.490Z,20.77
2018-12-30T08:55:36.053Z,16.07
2018-12-30T08:58:04.855Z,16.37
2018-12-30T09:00:33.600Z,17.57
2018-12-30T09:03:03.213Z,15.57
2018-12-30T09:05:32.051Z,14.57
2018-12-30T09:08:00.962Z,20.17
2018-12-30T09:10:29.754Z,23.00
2018-12-30T09:12:58.956Z,24.07
2018-12-30T09:15:27.722Z,14.37
2018-12-30T09:17:56.869Z,12.63
2018-12-30T09:20:25.644Z,17.70
2018-12-30T09:22:54.538Z,15.37
2018-12-30T09:25:24.282Z,17.50
2018-12-30T09:27:53.347Z,23.03
2018-12-30T09:30:22.341Z,18.97
2018-12-30T09:32:51.237Z,21.83
2018-12-30T09:35:20.151Z,19.40
2018-12-30T09:37:49.171Z,18.47
2018-12-30T09:40:17.995Z,18.97
2018-12-30T09:42:46.977Z,16.40
2018-12-30T09:45:16.075Z,13.30
2018-12-30T09:47:44.864Z,17.27
2018-12-30T09:50:13.755Z,12.30
2018-12-30T09:52:43.359Z,15.53
2018-12-30T09:55:12.281Z,12.90
2018-12-30T09:57:41.128Z,14.50
2018-12-30T10:00:10.065Z,12.87
2018-12-30T10:02:39.198Z,13.37
2018-12-30T10:05:08.103Z,11.90
2018-12-30T10:07:36.932Z,11.07
2018-12-30T10:10:06.072Z,10.93
2018-12-30T10:12:34.911Z,13.97
2018-12-30T10:15:09.562Z,14.80
2018-12-30T10:17:34.784Z,15.43
2018-12-30T10:20:03.900Z,14.90
2018-12-30T10:22:32.827Z,12.53
2018-12-30T10:25:01.814Z,13.67
2018-12-30T10:27:30.964Z,12.93
2018-12-30T10:29:59.846Z,11.57
2018-12-30T10:32:28.757Z,10.73
2018-12-30T10:34:57.657Z,9.50
2018-12-30T10:37:26.594Z,10.73
2018-12-30T10:39:55.511Z,9.83
2018-12-30T10:42:24.398Z,10.63
2018-12-30T10:44:53.243Z,11.87
2018-12-30T10:47:22.364Z,13.40
2018-12-30T10:49:51.168Z,11.07
2018-12-30T10:52:19.972Z,14.37
2018-12-30T10:54:48.883Z,15.43
2018-12-30T10:57:17.703Z,15.63
2018-12-30T10:59:46.542Z,10.50
2018-12-30T11:02:15.434Z,16.87
2018-12-30T11:04:44.335Z,10.57
2018-12-30T11:07:13.432Z,14.10
2018-12-30T11:09:42.305Z,12.87
2018-12-30T11:12:11.183Z,12.40
2018-12-30T11:14:40.213Z,9.93
2018-12-30T11:17:09.045Z,10.70
2018-12-30T11:19:37.849Z,18.40
2018-12-30T11:22:06.656Z,10.07
2018-12-30T11:24:35.550Z,12.37
2018-12-30T11:27:04.501Z,14.50
2018-12-30T11:29:33.398Z,9.67
2018-12-30T11:32:03.027Z,11.03
2018-12-30T11:34:34.174Z,11.87
2018-12-30T11:37:02.996Z,7.77
2018-12-30T11:39:31.809Z,10.17
2018-12-30T11:42:01.163Z,12.43
2018-12-30T11:44:30.820Z,12.80
2018-12-30T11:46:59.660Z,10.33
2018-12-30T11:49:28.756Z,13.97
2018-12-30T11:51:57.710Z,11.87
2018-12-30T11:54:27.076Z,12.70
2018-12-30T11:56:55.914Z,10.60
2018-12-30T11:59:24.934Z,13.87
2018-12-30T12:01:53.732Z,14.73
2018-12-30T12:04:22.609Z,10.83
2018-12-30T12:06:51.727Z,12.83
2018-12-30T12:09:20.682Z,10.43
2018-12-30T12:11:49.484Z,8.83
2018-12-30T12:14:18.434Z,14.50
2018-12-30T12:16:47.353Z,7.67
2018-12-30T12:19:16.223Z,9.10
2018-12-30T12:21:45.046Z,9.90
2018-12-30T12:24:13.970Z,8.03
2018-12-30T12:26:42.838Z,11.43
2018-12-30T12:29:12.124Z,10.53
2018-12-30T12:31:41.179Z,10.23
2018-12-30T12:34:10.031Z,13.37
2018-12-30T12:36:38.837Z,13.33
2018-12-30T12:39:08.078Z,13.80
2018-12-30T12:41:36.920Z,10.00
2018-12-30T12:44:06.299Z,12.70
2018-12-30T12:46:35.209Z,13.27
2018-12-30T12:49:04.668Z,10.93
2018-12-30T12:51:34.151Z,11.40
2018-12-30T12:54:02.963Z,10.97
2018-12-30T12:56:32.460Z,10.23
2018-12-30T12:59:01.357Z,7.23
2018-12-30T13:01:30.191Z,8.33
2018-12-30T13:03:59.064Z,10.87
2018-12-30T13:06:30.224Z,7.60
2018-12-30T13:08:59.362Z,13.83
2018-12-30T13:11:28.194Z,13.07
2018-12-30T13:13:57.241Z,9.43
2018-12-30T13:16:26.157Z,8.90
2018-12-30T13:18:55.029Z,14.50
2018-12-30T13:21:23.880Z,9.80
2018-12-30T13:23:52.831Z,12.57
2018-12-30T13:26:22.121Z,14.40
2018-12-30T13:28:51.670Z,10.07
2018-12-30T13:31:20.494Z,10.43
2018-12-30T13:33:49.467Z,14.50
2018-12-30T13:36:18.921Z,12.00
2018-12-30T13:38:50.209Z,11.25
2018-12-30T13:41:19.220Z,11.40
2018-12-30T13:43:48.792Z,11.73
2018-12-30T13:46:18.482Z,13.20
2018-12-30T13:48:47.438Z,17.40
2018-12-30T13:51:16.243Z,9.73
2018-12-30T13:53:45.091Z,10.40
2018-12-30T13:56:14.888Z,9.00
2018-12-30T13:58:44.025Z,12.30
2018-12-30T14:01:12.976Z,11.43
2018-12-30T14:03:41.795Z,6.33
2018-12-30T14:06:11.075Z,13.80
2018-12-30T14:08:39.881Z,11.70
2018-12-30T14:11:08.736Z,10.57
2018-12-30T14:13:38.311Z,13.47
2018-12-30T14:16:07.440Z,11.27
2018-12-30T14:18:36.478Z,8.63
2018-12-30T14:21:05.327Z,14.87
2018-12-30T14:23:34.877Z,10.70
2018-12-30T14:26:03.784Z,12.73
2018-12-30T14:28:32.548Z,9.33
2018-12-30T14:31:01.606Z,7.60
2018-12-30T14:33:30.579Z,12.07
2018-12-30T14:35:59.840Z,8.60
2018-12-30T14:38:28.642Z,9.87
2018-12-30T14:40:57.498Z,7.37
2018-12-30T14:43:26.355Z,12.57
2018-12-30T14:45:55.486Z,10.80
2018-12-30T14:48:25.011Z,14.13
2018-12-30T14:50:53.779Z,8.70
2018-12-30T14:53:22.762Z,12.33
2018-12-30T14:55:51.562Z,10.77
2018-12-30T14:58:20.864Z,9.97
2018-12-30T15:00:49.922Z,10.27
2018-12-30T15:03:19.213Z,10.20
2018-12-30T15:05:48.054Z,8.10
2018-12-30T15:08:16.935Z,10.97
2018-12-30T15:10:45.804Z,8.43
2018-12-30T15:13:14.658Z,9.80
2018-12-30T15:15:43.588Z,10.93
2018-12-30T15:18:12.642Z,9.10
2018-12-30T15:20:44.227Z,10.07
2018-12-30T15:23:13.370Z,10.43
2018-12-30T15:25:42.388Z,11.70
2018-12-30T15:28:11.733Z,9.47
2018-12-30T15:30:40.603Z,10.23
2018-12-30T15:33:09.399Z,12.23
2018-12-30T15:35:38.237Z,11.67
2018-12-30T15:38:07.246Z,12.13
2018-12-30T15:40:36.871Z,13.87
2018-12-30T15:43:07.534Z,10.23
2018-12-30T15:45:36.548Z,14.80
2018-12-30T15:48:06.051Z,11.90
2018-12-30T15:50:35.596Z,11.40
2018-12-30T15:53:04.503Z,14.27
2018-12-30T15:55:35.067Z,15.97
2018-12-30T15:58:03.973Z,12.27
2018-12-30T16:00:33.116Z,16.60
2018-12-30T16:03:02.000Z,13.73
2018-12-30T16:05:30.896Z,11.70
2018-12-30T16:07:59.867Z,12.43
2018-12-30T16:10:28.831Z,12.60
2018-12-30T16:12:59.953Z,14.43
2018-12-30T16:15:29.420Z,12.23
2018-12-30T16:17:58.350Z,11.10
2018-12-30T16:20:27.204Z,15.37
2018-12-30T16:22:55.976Z,17.70
2018-12-30T16:25:27.387Z,16.77
2018-12-30T16:27:55.676Z,11.53
2018-12-30T16:30:25.261Z,10.20
2018-12-30T16:32:54.194Z,13.90
2018-12-30T16:35:23.230Z,16.60
2018-12-30T16:37:52.079Z,10.83
2018-12-30T16:40:21.631Z,15.37
2018-12-30T16:42:50.428Z,9.73
2018-12-30T16:45:19.267Z,14.53
2018-12-30T16:47:48.076Z,11.63
2018-12-30T16:50:17.704Z,13.43
2018-12-30T16:52:47.362Z,12.70
2018-12-30T16:55:16.924Z,14.97
2018-12-30T16:57:47.539Z,14.57
2018-12-30T17:00:16.586Z,15.77
2018-12-30T17:02:45.453Z,13.47
2018-12-30T17:05:14.263Z,12.10
2018-12-30T17:07:43.342Z,14.40
2018-12-30T17:10:12.225Z,12.90
2018-12-30T17:12:41.110Z,13.97
2018-12-30T17:15:10.094Z,14.83
2018-12-30T17:17:41.737Z,19.73
2018-12-30T17:20:10.695Z,15.40
2018-12-30T17:22:40.252Z,16.23
2018-12-30T17:25:09.107Z,19.13
2018-12-30T17:27:38.662Z,13.63
2018-12-30T17:30:08.461Z,17.03
2018-12-30T17:32:37.468Z,19.23
2018-12-30T17:35:06.316Z,18.47
2018-12-30T17:37:35.140Z,17.20
2018-12-30T17:40:04.275Z,16.23
2018-12-30T17:42:33.119Z,17.17
2018-12-30T17:45:02.280Z,19.47
2018-12-30T17:47:31.116Z,16.90
2018-12-30T17:50:02.417Z,21.20
2018-12-30T17:52:31.384Z,19.50
2018-12-30T17:55:00.751Z,19.70
2018-12-30T17:57:29.651Z,19.93
2018-12-30T17:59:58.588Z,19.33
2018-12-30T18:02:27.504Z,19.00
2018-12-30T18:04:56.328Z,18.50
2018-12-30T18:07:25.361Z,21.10
2018-12-30T18:09:54.248Z,21.00
2018-12-30T18:12:23.108Z,20.57
2018-12-30T18:14:54.757Z,20.23
2018-12-30T18:17:23.752Z,22.63
2018-12-30T18:19:52.759Z,22.47
2018-12-30T18:22:21.763Z,21.43
2018-12-30T18:24:50.570Z,22.13
2018-12-30T18:27:19.766Z,24.47
2018-12-30T18:29:48.729Z,26.17
2018-12-30T18:32:17.944Z,23.53
2018-12-30T18:34:48.960Z,21.83
2018-12-30T18:37:18.090Z,25.93
2018-12-30T18:39:46.890Z,22.50
2018-12-30T18:42:15.747Z,23.43
2018-12-30T18:44:44.559Z,25.77
2018-12-30T18:47:13.382Z,23.30
2018-12-30T18:49:42.241Z,26.93
2018-12-30T18:52:11.108Z,27.20
2018-12-30T18:54:41.865Z,26.97
2018-12-30T18:57:10.938Z,23.77
2018-12-30T18:59:39.851Z,27.40
2018-12-30T19:02:08.919Z,28.90
2018-12-30T19:04:38.268Z,28.60
2018-12-30T19:07:07.279Z,25.43
2018-12-30T19:09:36.207Z,26.33
2018-12-30T19:12:05.550Z,28.67
2018-12-30T19:14:34.503Z,27.93
2018-12-30T19:17:03.496Z,24.37
2018-12-30T19:19:32.408Z,30.37
2018-12-30T19:22:01.379Z,28.13
2018-12-30T19:24:30.392Z,25.23
2018-12-30T19:26:59.224Z,26.80
2018-12-30T19:29:28.107Z,29.10
2018-12-30T19:31:57.364Z,27.73
2018-12-30T19:34:26.619Z,27.50
2018-12-30T19:36:55.731Z,29.33
2018-12-30T19:39:24.705Z,26.73
2018-12-30T19:41:53.579Z,26.57
2018-12-30T19:44:22.618Z,28.93
2018-12-30T19:46:51.883Z,27.57
2018-12-30T19:49:20.836Z,28.73
2018-12-30T19:51:49.760Z,27.43
2018-12-30T19:54:20.691Z,28.60
2018-12-30T19:56:49.928Z,29.03
2018-12-30T19:59:19.201Z,31.17
2018-12-30T20:01:48.064Z,31.47
2018-12-30T20:04:17.049Z,32.57
2018-12-30T20:06:45.977Z,33.10
2018-12-30T20:09:14.763Z,31.07
2018-12-30T20:11:43.641Z,32.83
2018-12-30T20:14:12.825Z,33.53
2018-12-30T20:16:41.747Z,32.60
2018-12-30T20:19:10.674Z,32.47
2018-12-30T20:21:39.627Z,34.60
2018-12-30T20:24:08.779Z,33.17
2018-12-30T20:26:39.946Z,34.27
2018-12-30T20:29:08.833Z,33.03
2018-12-30T20:31:37.895Z,38.17
2018-12-30T20:34:08.826Z,32.73
2018-12-30T20:36:37.775Z,35.83
2018-12-30T20:39:07.635Z,37.43
2018-12-30T20:41:37.307Z,35.57
2018-12-30T20:44:06.206Z,35.97
2018-12-30T20:46:35.219Z,37.63
2018-12-30T20:49:04.382Z,37.13
2018-12-30T20:51:33.540Z,40.80
2018-12-30T20:54:03.298Z,38.93
2018-12-30T20:56:37.607Z,44.90
2018-12-30T20:59:02.755Z,43.77
2018-12-30T21:01:31.709Z,41.43
2018-12-30T21:04:00.829Z,45.10
2018-12-30T21:06:30.071Z,44.03
2018-12-30T21:08:59.099Z,44.37
2018-12-30T21:11:28.250Z,42.20
2018-12-30T21:13:57.307Z,39.47
2018-12-30T21:16:26.242Z,41.27
2018-12-30T21:18:55.053Z,38.47
2018-12-30T21:21:24.065Z,41.40
2018-12-30T21:23:52.980Z,40.00
2018-12-30T21:26:24.062Z,39.10
2018-12-30T21:28:52.920Z,35.60
2018-12-30T21:31:21.850Z,36.77
2018-12-30T21:33:50.842Z,35.90
2018-12-30T21:36:19.753Z,34.33
2018-12-30T21:38:48.864Z,37.03
2018-12-30T21:41:17.878Z,34.03
2018-12-30T21:43:48.913Z,34.43
2018-12-30T21:46:17.779Z,33.20
2018-12-30T21:48:46.597Z,30.83
2018-12-30T21:51:15.673Z,33.17
2018-12-30T21:53:44.531Z,33.90
2018-12-30T21:56:14.083Z,30.73
2018-12-30T21:58:43.159Z,31.13
2018-12-30T22:01:12.065Z,31.27
2018-12-30T22:03:41.529Z,31.57
2018-12-30T22:06:10.412Z,27.30
2018-12-30T22:08:39.401Z,29.73
2018-12-30T22:11:08.267Z,29.07
2018-12-30T22:13:37.103Z,30.80
2018-12-30T22:16:06.661Z,28.20
2018-12-30T22:18:35.563Z,29.10
2018-12-30T22:21:04.509Z,28.33
2018-12-30T22:23:33.826Z,29.53
2018-12-30T22:26:02.822Z,29.83
2018-12-30T22:28:32.476Z,29.60
2018-12-30T22:31:03.297Z,27.43
2018-12-30T22:33:32.484Z,27.37
2018-12-30T22:36:04.016Z,29.00
2018-12-30T22:38:33.022Z,24.83
2018-12-30T22:41:01.801Z,27.90
2018-12-30T22:43:30.861Z,25.27
2018-12-30T22:45:59.934Z,24.43
2018-12-30T22:48:28.880Z,23.93
2018-12-30T22:50:57.716Z,23.90
2018-12-30T22:53:26.547Z,22.83
2018-12-30T22:55:55.506Z,22.10
2018-12-30T22:58:24.358Z,21.90
2018-12-30T23:01:02.631Z,20.50
2018-12-30T23:03:31.688Z,19.80
2018-12-30T23:06:00.761Z,21.13
2018-12-30T23:08:29.983Z,22.33
2018-12-30T23:10:58.837Z,19.03
2018-12-30T23:13:27.714Z,19.83
2018-12-30T23:15:56.538Z,18.47
2018-12-30T23:18:25.467Z,20.30
2018-12-30T23:20:54.565Z,18.23
2018-12-30T23:23:23.511Z,18.13
2018-12-30T23:25:52.883Z,17.87
2018-12-30T23:28:21.922Z,19.13
2018-12-30T23:30:50.925Z,18.67
2018-12-30T23:33:21.845Z,15.93
2018-12-30T23:35:51.720Z,16.17
2018-12-30T23:38:20.557Z,17.23
2018-12-30T23:40:49.652Z,17.17
2018-12-30T23:43:18.554Z,17.00
2018-12-30T23:45:47.477Z,17.70
2018-12-30T23:48:16.319Z,17.90
2018-12-30T23:50:45.110Z,16.90
2018-12-30T23:53:14.062Z,18.17
2018-12-30T23:55:43.046Z,17.17
2018-12-30T23:58:12.903Z,18.27
